Balsam Lake, Wisconsin
Current Conditions -  °F | °C
As of 2:15 AM on Friday 28 Nov 2014 (Local Time) from KOEO Reporting Station
Light Snow Light Snow  
Wind Chill: -2°   Ceiling: 1600
Heat Index: 10°   Visibility: 1.7mi
Dew Point:   Wind: 8mph
Humidity: 85%   Direction: 140°SE
Pressure: 30.23"   Gusts: NA
Location:  45.45°N, 92.45°W
Report Text: KOEO 280815Z AUTO 14007KT 1 3/4SM -SN OVC016 M12/M14 A3023 RMK AO2 T11231144
Loading
Personal Weather Stations






























Interactive Weather Map New forecast layout! Learn more

10-Day Weather Forecast

Advertisements
Track Severe Weather on mobile